createdAt,value
2023-03-12T00:04:07.370Z,42810.53
2023-03-12T00:09:12.065Z,42988.13
2023-03-12T00:14:17.802Z,42952.22
2023-03-12T00:19:21.926Z,42936.25
2023-03-12T00:24:26.265Z,42852.44
2023-03-12T00:29:32.337Z,42858.44
2023-03-12T00:34:36.810Z,42788.59
2023-03-12T00:39:41.237Z,42694.81
2023-03-12T00:44:46.846Z,42640.94
2023-03-12T00:49:51.346Z,42726.75
2023-03-12T00:54:58.493Z,42656.91
2023-03-12T01:00:07.094Z,42698.81
2023-03-12T01:05:14.499Z,42660.91
2023-03-12T01:10:20.050Z,42621.00
2023-03-12T01:15:26.019Z,42613.00
2023-03-12T01:20:30.373Z,42549.16
2023-03-12T01:25:35.006Z,42507.25
2023-03-12T01:30:40.752Z,42541.19
2023-03-12T01:35:45.298Z,42499.28
2023-03-12T01:40:49.693Z,42505.28
2023-03-12T01:46:23.127Z,42451.41
2023-03-12T01:51:32.001Z,42445.41
2023-03-12T01:56:37.880Z,42473.34
2023-03-12T02:01:44.705Z,42443.41
2023-03-12T02:06:54.764Z,42389.56
2023-03-12T02:11:59.133Z,42325.72
2023-03-12T02:17:06.114Z,42297.78
2023-03-12T02:22:11.418Z,42301.78
2023-03-12T02:27:19.546Z,42265.84
2023-03-12T02:32:28.219Z,42293.78
2023-03-12T02:37:32.886Z,42219.97
2023-03-12T02:42:39.403Z,42178.06
2023-03-12T02:47:43.892Z,42084.31
2023-03-12T02:52:48.783Z,42154.13
2023-03-12T02:57:54.374Z,42114.25
2023-03-12T03:03:00.103Z,42048.41
2023-03-12T03:08:04.909Z,42066.34
2023-03-12T03:13:10.701Z,42086.31
2023-03-12T03:18:15.261Z,42142.16
2023-03-12T03:23:19.702Z,42150.16
2023-03-12T03:28:27.261Z,42221.97
2023-03-12T03:33:35.076Z,42251.91
2023-03-12T03:38:39.957Z,42291.78
2023-03-12T03:43:46.124Z,42351.66
2023-03-12T03:48:52.684Z,42397.53
2023-03-12T03:54:00.590Z,42437.44
2023-03-12T03:59:07.525Z,42485.31
2023-03-12T04:04:14.980Z,42561.13
2023-03-12T04:09:19.765Z,42577.09
2023-03-12T04:14:25.701Z,42565.13
2023-03-12T04:19:30.582Z,42636.97
2023-03-12T04:24:35.043Z,42662.91
2023-03-12T04:29:42.276Z,42656.91
2023-03-12T04:34:46.973Z,42792.59
2023-03-12T04:39:53.588Z,42876.38
2023-03-12T04:44:59.508Z,42952.22
2023-03-12T04:50:04.153Z,43034.03
2023-03-12T04:55:10.286Z,43107.84
2023-03-12T05:00:17.764Z,43237.56
2023-03-12T05:05:23.509Z,43231.56
2023-03-12T05:10:28.434Z,43331.34
2023-03-12T05:15:38.525Z,43461.06
2023-03-12T05:20:42.716Z,43544.88
2023-03-12T05:25:47.032Z,43696.56
2023-03-12T05:30:52.699Z,43810.31
2023-03-12T05:35:56.716Z,43872.19
2023-03-12T05:41:01.240Z,43970.00
2023-03-12T05:46:11.118Z,44007.91
2023-03-12T05:51:15.548Z,44133.66
2023-03-12T05:56:20.289Z,44223.47
2023-03-12T06:01:26.986Z,44235.47
2023-03-12T06:06:33.383Z,44237.47
2023-03-12T06:11:37.549Z,44337.25
2023-03-12T06:16:43.211Z,44415.09
2023-03-12T06:21:47.397Z,44504.94
2023-03-12T06:26:51.871Z,44526.88
2023-03-12T06:31:57.409Z,44554.84
2023-03-12T06:37:01.540Z,44524.91
2023-03-12T06:42:06.001Z,44594.75
2023-03-12T06:47:11.498Z,44660.63
2023-03-12T06:52:15.507Z,44720.53
2023-03-12T06:57:19.465Z,44740.50
2023-03-12T07:02:24.975Z,44712.53
2023-03-12T07:07:29.149Z,44972.06
2023-03-12T07:12:33.312Z,45002.00
2023-03-12T07:17:39.370Z,45055.91
2023-03-12T07:22:43.507Z,45107.81
2023-03-12T07:27:48.000Z,45069.91
2023-03-12T07:32:53.867Z,45463.22
2023-03-12T07:37:58.295Z,45704.81
2023-03-12T07:43:02.986Z,45768.72
2023-03-12T07:48:11.104Z,45878.53
2023-03-12T07:53:15.679Z,46012.34
2023-03-12T07:58:19.910Z,46008.34
2023-03-12T08:03:26.092Z,45982.38
2023-03-12T08:08:31.280Z,46046.28
2023-03-12T08:13:35.980Z,46066.25
2023-03-12T08:18:43.213Z,46084.22
2023-03-12T08:23:47.480Z,46036.31
2023-03-12T08:28:53.110Z,46042.28
2023-03-12T08:33:59.021Z,46058.25
2023-03-12T08:39:03.031Z,46124.16
2023-03-12T08:44:07.054Z,46118.19
2023-03-12T08:49:12.352Z,46146.13
2023-03-12T08:54:16.673Z,46088.22
2023-03-12T08:59:22.539Z,46154.13
2023-03-12T09:04:27.895Z,46026.31
2023-03-12T09:09:32.354Z,46106.19
2023-03-12T09:15:02.531Z,46034.31
2023-03-12T09:20:01.709Z,46098.19
2023-03-12T09:25:05.921Z,46050.28
2023-03-12T09:30:11.695Z,46044.28
2023-03-12T09:35:17.751Z,46006.34
2023-03-12T09:40:23.930Z,46044.28
2023-03-12T09:45:29.178Z,45924.47
2023-03-12T09:50:35.342Z,46006.34
2023-03-12T09:55:41.290Z,46120.16
2023-03-12T10:00:47.540Z,46084.22
2023-03-12T10:06:04.166Z,46098.19
2023-03-12T10:11:17.369Z,45996.34
2023-03-12T10:16:28.359Z,45968.41
2023-03-12T10:21:37.819Z,45938.44
2023-03-12T10:26:44.194Z,45948.44
2023-03-12T10:31:54.652Z,46074.25
2023-03-12T10:37:04.298Z,46158.13
2023-03-12T10:42:13.931Z,46010.34
2023-03-12T10:47:27.224Z,46116.19
2023-03-12T10:52:33.007Z,46100.19
2023-03-12T10:57:41.334Z,46002.34
2023-03-12T11:02:46.166Z,46178.09
2023-03-12T11:07:52.876Z,46188.06
2023-03-12T11:13:03.983Z,46247.97
2023-03-12T11:18:21.932Z,46146.13
2023-03-12T11:23:29.892Z,46114.19
2023-03-12T11:28:38.333Z,46016.31
2023-03-12T11:33:43.029Z,46132.16
2023-03-12T11:38:52.279Z,46222.03
2023-03-12T11:44:05.601Z,46152.13
2023-03-12T11:49:21.903Z,46172.09
2023-03-12T11:54:40.539Z,46134.16
2023-03-12T11:59:55.076Z,46154.13
2023-03-12T12:05:22.833Z,46257.97
2023-03-12T12:10:31.462Z,46172.09
2023-03-12T12:15:39.145Z,46196.06
2023-03-12T12:20:46.867Z,46196.06
2023-03-12T12:26:06.215Z,46152.13
2023-03-12T12:31:19.217Z,46182.06
2023-03-12T12:36:25.865Z,46126.16
2023-03-12T12:41:34.228Z,46070.25
2023-03-12T12:46:40.591Z,46156.13
2023-03-12T12:51:45.799Z,46206.03
2023-03-12T12:56:52.774Z,46162.09
2023-03-12T13:01:57.698Z,46182.06
2023-03-12T13:07:03.121Z,46224.00
2023-03-12T13:12:16.286Z,46146.13
2023-03-12T13:17:31.109Z,46182.06
2023-03-12T13:23:02.385Z,46291.91
2023-03-12T13:28:21.073Z,46309.88
2023-03-12T13:33:40.562Z,46317.88
2023-03-12T13:38:54.507Z,46317.88
2023-03-12T13:43:58.337Z,46281.94
2023-03-12T18:21:01.041Z,46551.53
2023-03-12T18:26:06.001Z,46531.56
2023-03-12T18:31:10.552Z,46533.56
2023-03-12T18:36:16.412Z,46513.59
2023-03-12T18:41:20.535Z,46549.56
2023-03-12T18:46:25.179Z,46595.47
2023-03-12T18:51:31.546Z,46573.50
2023-03-12T18:56:39.392Z,46569.53
2023-03-12T19:01:44.770Z,46601.47
2023-03-12T19:06:51.962Z,46621.44
2023-03-12T19:11:57.374Z,46645.41
2023-03-12T19:17:01.790Z,46603.47
2023-03-12T19:22:07.803Z,46633.44
2023-03-12T19:27:12.775Z,46647.41
2023-03-12T19:32:17.494Z,46639.44
2023-03-12T19:37:23.462Z,46613.47
2023-03-12T19:42:28.011Z,46625.44
2023-03-12T19:47:33.399Z,46635.44
2023-03-12T19:52:39.009Z,46621.44
2023-03-12T19:57:43.514Z,46673.38
2023-03-12T20:02:48.238Z,46637.44
2023-03-12T20:07:53.985Z,46635.44
2023-03-12T20:12:58.702Z,46631.44
2023-03-12T20:18:02.837Z,46635.44
2023-03-12T20:23:09.680Z,46627.44
2023-03-12T20:28:14.035Z,46627.44
2023-03-12T20:33:18.597Z,46645.41
2023-03-12T20:38:24.115Z,46639.44
2023-03-12T20:43:28.356Z,46659.41
2023-03-12T20:48:32.685Z,46669.38
2023-03-12T20:53:38.320Z,46637.44
2023-03-12T20:58:42.469Z,46649.41
2023-03-12T21:03:47.490Z,46637.44
2023-03-12T21:08:53.221Z,46623.44
2023-03-12T21:13:57.861Z,46649.41
2023-03-12T21:19:02.077Z,46625.44
2023-03-12T21:24:08.262Z,46611.47
2023-03-12T21:29:12.723Z,46613.47
2023-03-12T21:34:17.050Z,46653.41
2023-03-12T21:39:23.133Z,46629.44
2023-03-12T21:44:27.341Z,46603.47
2023-03-12T21:49:32.042Z,46621.44
2023-03-12T21:54:38.103Z,46595.47
2023-03-12T21:59:42.646Z,46629.44
2023-03-12T22:04:46.750Z,46597.47
2023-03-12T22:09:52.337Z,46587.50
2023-03-12T22:14:56.558Z,46597.47
2023-03-12T22:20:01.096Z,46551.53
2023-03-12T22:25:07.938Z,46593.50
2023-03-12T22:30:14.900Z,46579.50
2023-03-12T22:35:25.881Z,46523.59
2023-03-12T22:40:31.678Z,46509.59
2023-03-12T22:45:36.284Z,46487.63
2023-03-12T22:50:40.445Z,46445.69
2023-03-12T22:55:46.416Z,46415.75
2023-03-12T23:00:50.880Z,46397.75
2023-03-12T23:05:55.302Z,46361.81
2023-03-12T23:11:03.188Z,46313.88
2023-03-12T23:16:10.144Z,46297.91
2023-03-12T23:21:17.313Z,46293.91
2023-03-12T23:26:24.927Z,46279.94
2023-03-12T23:31:30.546Z,46277.94
2023-03-12T23:36:34.906Z,46218.03
2023-03-12T23:41:40.940Z,46216.03
2023-03-12T23:46:45.648Z,46188.06
2023-03-12T23:51:50.069Z,46126.16
2023-03-12T23:56:56.488Z,46114.19
